createdAt,value
2023-03-23T16:01:22.363Z,70.63
2023-03-23T16:06:27.818Z,59.85
2023-03-23T16:11:33.642Z,72.85
2023-03-23T16:16:41.848Z,54.28
2023-03-23T16:21:44.562Z,74.50
2023-03-23T16:26:47.204Z,75.95
2023-03-23T16:31:49.845Z,79.95
2023-03-23T16:36:52.487Z,58.38
2023-03-23T16:41:56.241Z,58.85
2023-03-23T16:46:58.902Z,61.10
2023-03-23T16:52:01.472Z,59.47
2023-03-23T16:57:04.178Z,52.08
2023-03-23T17:02:07.860Z,49.47
2023-03-23T17:07:13.233Z,52.97
2023-03-23T17:17:19.127Z,51.72
2023-03-23T17:22:21.769Z,52.85
2023-03-23T17:27:25.259Z,54.78
2023-03-23T17:32:28.116Z,54.25
2023-03-23T17:37:31.096Z,55.65
2023-03-23T17:42:33.792Z,50.38
2023-03-23T17:47:36.812Z,43.65
2023-03-23T17:52:40.494Z,45.42
2023-03-23T17:57:44.792Z,40.28
2023-03-23T18:03:02.830Z,40.08
2023-03-23T18:08:07.491Z,53.72
2023-03-23T18:13:10.770Z,44.00
2023-03-23T18:18:13.647Z,41.00
2023-03-23T18:23:17.046Z,30.42
2023-03-23T18:28:21.012Z,29.35
2023-03-23T18:33:25.283Z,24.90
2023-03-23T18:38:29.496Z,21.67
2023-03-23T18:43:32.096Z,28.20
2023-03-23T18:48:36.209Z,26.42
2023-03-23T18:53:39.180Z,23.83
2023-03-23T18:58:41.914Z,22.90
2023-03-23T19:03:45.753Z,23.67
2023-03-23T19:08:49.935Z,37.17
2023-03-23T19:14:01.632Z,35.90
2023-03-23T19:19:08.415Z,32.42
2023-03-23T19:24:12.066Z,27.60
2023-03-23T19:34:25.045Z,26.42
2023-03-23T19:39:28.075Z,42.95
2023-03-23T19:44:30.643Z,31.77
2023-03-23T19:49:33.238Z,29.33
2023-03-23T19:54:36.738Z,30.98
2023-03-23T19:59:39.645Z,33.25
2023-03-23T20:04:43.709Z,35.75
2023-03-23T20:09:48.627Z,34.17
2023-03-23T20:14:51.368Z,42.10
2023-03-23T20:19:53.922Z,43.35
2023-03-23T20:24:56.521Z,40.08
2023-03-23T20:29:59.246Z,37.70
2023-03-23T20:35:06.489Z,35.00
2023-03-23T20:40:12.206Z,40.25
2023-03-23T20:45:16.223Z,39.83
2023-03-23T20:50:21.555Z,39.30
2023-03-23T20:55:24.210Z,32.70
2023-03-23T21:00:26.760Z,40.45
2023-03-23T21:05:29.884Z,48.50
2023-03-23T21:10:33.092Z,36.70
2023-03-23T21:15:35.751Z,27.75
2023-03-23T21:20:38.970Z,32.45
2023-03-23T21:25:44.748Z,65.15
2023-03-23T21:30:49.475Z,36.55
2023-03-23T21:41:00.637Z,32.75
2023-03-23T21:46:08.965Z,28.63
2023-03-23T21:51:14.940Z,31.27
2023-03-23T21:56:17.960Z,25.30
2023-03-23T22:01:21.558Z,24.73
2023-03-23T22:06:27.126Z,24.98
2023-03-23T22:11:31.828Z,29.15
2023-03-23T22:16:37.439Z,28.63
2023-03-23T22:21:43.064Z,28.35
2023-03-23T22:26:45.762Z,30.80
2023-03-23T22:31:48.432Z,27.58
2023-03-23T22:36:52.614Z,34.70
2023-03-23T22:41:55.556Z,32.88
2023-03-23T22:46:58.308Z,33.58
2023-03-23T22:52:00.960Z,34.53
2023-03-23T22:57:03.960Z,25.85
2023-03-23T23:02:06.776Z,26.65
2023-03-23T23:07:14.559Z,28.27
2023-03-23T23:12:18.575Z,32.50
2023-03-23T23:17:23.589Z,26.65
2023-03-23T23:22:26.681Z,30.33
2023-03-23T23:27:29.348Z,23.90
2023-03-23T23:32:34.028Z,27.67
2023-03-23T23:37:36.862Z,23.42
2023-03-23T23:42:39.479Z,25.67
2023-03-23T23:47:43.023Z,28.50
2023-03-23T23:52:46.919Z,24.63
2023-03-23T23:57:49.884Z,25.80
